createdAt,value
2022-12-17T00:00:32.696Z,-3.20
2022-12-17T00:03:18.397Z,-3.20
2022-12-17T00:06:20.597Z,-3.20
2022-12-17T00:09:05.674Z,-3.20
2022-12-17T00:11:50.932Z,-3.20
2022-12-17T00:14:36.979Z,-3.20
2022-12-17T00:17:21.903Z,-3.10
2022-12-17T00:20:06.968Z,-3.10
2022-12-17T00:22:51.984Z,-3.20
2022-12-17T00:25:55.203Z,-3.20
2022-12-17T00:28:40.511Z,-3.20
2022-12-17T00:31:25.654Z,-3.20
2022-12-17T00:34:10.716Z,-3.30
2022-12-17T00:36:55.711Z,-3.20
2022-12-17T00:39:40.945Z,-3.20
2022-12-17T00:42:26.086Z,-3.30
2022-12-17T00:45:11.160Z,-3.30
2022-12-17T00:48:06.851Z,-3.20
2022-12-17T00:50:51.954Z,-3.20
2022-12-17T00:53:37.341Z,-3.20
2022-12-17T00:56:23.175Z,-3.20
2022-12-17T00:59:08.143Z,-3.10
2022-12-17T01:01:53.331Z,-3.10
2022-12-17T01:04:39.031Z,-3.20
2022-12-17T01:07:23.924Z,-3.20
2022-12-17T01:10:09.178Z,-3.20
2022-12-17T01:12:54.182Z,-3.30
2022-12-17T01:15:41.740Z,-3.20
2022-12-17T01:18:26.854Z,-3.20
2022-12-17T01:21:16.000Z,-3.30
2022-12-17T01:24:01.000Z,-3.30
2022-12-17T01:26:46.150Z,-3.20
2022-12-17T01:29:31.125Z,-3.20
2022-12-17T01:32:16.308Z,-3.20
2022-12-17T01:35:01.387Z,-3.20
2022-12-17T01:37:46.628Z,-3.10
2022-12-17T01:40:31.790Z,-3.10
2022-12-17T01:43:16.869Z,-3.10
2022-12-17T01:46:03.988Z,-3.10
2022-12-17T01:48:52.522Z,-3.10
2022-12-17T01:51:38.033Z,-3.10
2022-12-17T01:54:23.713Z,-3.10
2022-12-17T01:57:09.206Z,-3.10
2022-12-17T02:00:14.552Z,-3.10
2022-12-17T02:03:00.230Z,-3.10
2022-12-17T02:05:57.081Z,-3.10
2022-12-17T02:08:45.762Z,-3.00
2022-12-17T02:11:54.182Z,-3.00
2022-12-17T02:15:00.195Z,-3.00
2022-12-17T02:17:48.834Z,-3.00
2022-12-17T02:20:43.122Z,-3.00
2022-12-17T02:23:43.610Z,-3.00
2022-12-17T02:26:32.224Z,-3.00
2022-12-17T02:29:22.819Z,-2.90
2022-12-17T02:32:08.481Z,-2.90
2022-12-17T02:35:01.685Z,-2.90
2022-12-17T02:37:46.753Z,-2.90
2022-12-17T02:40:31.865Z,-2.90
2022-12-17T02:43:17.392Z,-2.90
2022-12-17T02:46:02.616Z,-2.90
2022-12-17T02:48:48.376Z,-2.90
2022-12-17T02:51:33.442Z,-2.90
2022-12-17T02:54:20.526Z,-2.90
2022-12-17T02:57:06.333Z,-2.90
2022-12-17T02:59:51.504Z,-2.90
2022-12-17T03:02:36.800Z,-2.90
2022-12-17T03:05:44.007Z,-2.90
2022-12-17T03:08:27.731Z,-2.90
2022-12-17T03:11:12.926Z,-2.90
2022-12-17T03:13:58.063Z,-2.90
2022-12-17T03:16:43.538Z,-2.90
2022-12-17T03:19:28.697Z,-2.90
2022-12-17T03:22:13.871Z,-2.90
2022-12-17T03:24:58.824Z,-2.80
2022-12-17T03:27:54.469Z,-2.80
2022-12-17T03:30:40.688Z,-2.80
2022-12-17T03:33:28.511Z,-2.80
2022-12-17T03:36:13.503Z,-2.80
2022-12-17T03:38:58.641Z,-2.80
2022-12-17T03:41:43.662Z,-2.90
2022-12-17T03:44:28.799Z,-2.90
2022-12-17T03:47:13.987Z,-2.90
2022-12-17T03:49:59.056Z,-2.90
2022-12-17T03:52:44.219Z,-2.90
2022-12-17T03:55:29.330Z,-2.90
2022-12-17T03:58:14.345Z,-2.90
2022-12-17T04:00:59.467Z,-2.90
2022-12-17T04:03:44.525Z,-2.80
2022-12-17T04:06:29.686Z,-2.80
2022-12-17T04:09:14.683Z,-2.80
2022-12-17T04:12:00.004Z,-2.80
2022-12-17T04:14:45.146Z,-2.80
2022-12-17T04:17:30.090Z,-2.80
2022-12-17T04:20:15.206Z,-2.70
2022-12-17T04:23:00.261Z,-2.70
2022-12-17T04:25:45.459Z,-2.80
2022-12-17T04:28:30.520Z,-2.70
2022-12-17T04:31:15.751Z,-2.80
2022-12-17T04:34:00.803Z,-2.80
2022-12-17T04:36:45.842Z,-2.70
2022-12-17T04:39:30.895Z,-2.60
2022-12-17T04:42:16.086Z,-2.60
2022-12-17T04:45:01.347Z,-2.60
2022-12-17T04:47:46.324Z,-2.60
2022-12-17T04:50:31.440Z,-2.70
2022-12-17T04:53:20.207Z,-2.60
2022-12-17T04:56:05.327Z,-2.60
2022-12-17T04:58:50.971Z,-2.60
2022-12-17T05:01:36.236Z,-2.60
2022-12-17T05:04:21.582Z,-2.60
2022-12-17T05:07:06.752Z,-2.50
2022-12-17T05:09:51.687Z,-2.50
2022-12-17T05:12:36.888Z,-2.40
2022-12-17T05:15:22.435Z,-2.50
2022-12-17T05:18:07.448Z,-2.40
2022-12-17T05:20:52.521Z,-2.40
2022-12-17T05:23:37.702Z,-2.40
2022-12-17T05:26:23.181Z,-2.40
2022-12-17T05:29:12.640Z,-2.40
2022-12-17T05:32:00.628Z,-2.50
2022-12-17T05:34:45.736Z,-2.50
2022-12-17T05:37:30.667Z,-2.50
2022-12-17T05:40:15.883Z,-2.50
2022-12-17T05:43:00.935Z,-2.50
2022-12-17T05:45:46.127Z,-2.50
2022-12-17T05:48:31.218Z,-2.60
2022-12-17T05:51:16.275Z,-2.50
2022-12-17T05:54:01.406Z,-2.40
2022-12-17T05:56:46.506Z,-2.40
2022-12-17T05:59:31.714Z,-2.40
2022-12-17T06:02:16.858Z,-2.40
2022-12-17T06:05:02.520Z,-2.40
2022-12-17T06:07:48.406Z,-2.40
2022-12-17T06:10:33.415Z,-2.40
2022-12-17T06:13:18.576Z,-2.50
2022-12-17T06:16:07.284Z,-2.50
2022-12-17T06:18:53.024Z,-2.50
2022-12-17T06:21:38.114Z,-2.40
2022-12-17T06:24:23.203Z,-2.30
2022-12-17T06:27:08.438Z,-2.30
2022-12-17T06:29:53.615Z,-2.30
2022-12-17T06:32:38.678Z,-2.40
2022-12-17T06:35:24.257Z,-2.40
2022-12-17T06:38:18.950Z,-2.40
2022-12-17T06:41:04.477Z,-2.40
2022-12-17T06:43:49.532Z,-2.40
2022-12-17T06:46:34.781Z,-2.30
2022-12-17T06:49:19.862Z,-2.30
2022-12-17T06:52:05.011Z,-2.30
2022-12-17T06:54:50.199Z,-2.30
2022-12-17T06:57:39.182Z,-2.20
2022-12-17T07:00:26.713Z,-2.10
2022-12-17T07:03:15.649Z,-2.20
2022-12-17T07:06:01.461Z,-2.20
2022-12-17T07:08:47.184Z,-2.20
2022-12-17T07:11:32.308Z,-2.20
2022-12-17T07:14:17.493Z,-2.10
2022-12-17T07:17:02.511Z,-2.10
2022-12-17T07:19:47.335Z,-2.10
2022-12-17T07:22:32.488Z,-2.00
2022-12-17T07:25:17.680Z,-2.00
2022-12-17T07:28:12.329Z,-1.90
2022-12-17T07:30:57.525Z,-1.90
2022-12-17T07:33:42.566Z,-1.90
2022-12-17T07:36:27.642Z,-1.90
2022-12-17T07:39:12.764Z,-2.00
2022-12-17T07:41:57.788Z,-2.00
2022-12-17T07:44:42.723Z,-1.90
2022-12-17T07:47:27.750Z,-1.90
2022-12-17T07:50:12.859Z,-1.90
2022-12-17T07:52:58.091Z,-1.80
2022-12-17T07:55:43.160Z,-1.80
2022-12-17T07:58:29.628Z,-1.70
2022-12-17T08:01:17.845Z,-1.70
2022-12-17T08:04:03.295Z,-1.70
2022-12-17T08:06:48.487Z,-1.70
2022-12-17T08:09:33.527Z,-1.70
2022-12-17T08:12:18.516Z,-1.70
2022-12-17T08:15:03.576Z,-1.70
2022-12-17T08:17:48.674Z,-1.60
2022-12-17T08:20:34.023Z,-1.70
2022-12-17T08:23:19.974Z,-1.70
2022-12-17T08:26:05.189Z,-1.60
2022-12-17T08:28:51.166Z,-1.50
2022-12-17T08:31:37.387Z,-1.60
2022-12-17T08:34:22.699Z,-1.50
2022-12-17T08:37:07.835Z,-1.50
2022-12-17T08:39:53.060Z,-1.50
2022-12-17T08:42:38.050Z,-1.50
2022-12-17T08:45:23.864Z,-1.50
2022-12-17T08:48:08.944Z,-1.50
2022-12-17T08:50:54.076Z,-1.50
2022-12-17T08:53:39.365Z,-1.40
2022-12-17T08:56:25.093Z,-1.40
2022-12-17T08:59:10.059Z,-1.30
2022-12-17T09:01:55.370Z,-1.30
2022-12-17T09:04:40.797Z,-1.30
2022-12-17T09:07:25.988Z,-1.20
2022-12-17T09:10:11.003Z,-1.20
2022-12-17T09:13:01.158Z,-1.10
2022-12-17T09:15:49.798Z,-1.10
2022-12-17T09:18:38.922Z,-1.00
2022-12-17T09:21:24.544Z,-1.00
2022-12-17T09:24:09.622Z,-1.00
2022-12-17T09:26:55.071Z,-1.00
2022-12-17T09:29:39.978Z,-1.00
2022-12-17T09:32:25.218Z,-1.00
2022-12-17T09:35:10.301Z,-1.00
2022-12-17T09:37:55.452Z,-0.90
2022-12-17T09:40:42.420Z,-0.80
2022-12-17T09:43:39.651Z,-0.80
2022-12-17T09:46:30.877Z,-0.70
2022-12-17T09:49:20.318Z,-0.70
2022-12-17T09:52:05.340Z,-0.70
2022-12-17T09:54:56.336Z,-0.60
2022-12-17T09:57:47.350Z,-0.60
2022-12-17T10:00:37.054Z,-0.50
2022-12-17T10:03:23.141Z,-0.40
2022-12-17T10:06:09.145Z,-0.20
2022-12-17T10:08:54.438Z,-0.10
2022-12-17T10:11:42.764Z,0.00
2022-12-17T10:14:34.037Z,0.30
2022-12-17T10:17:19.258Z,0.30
2022-12-17T10:20:07.558Z,0.20
2022-12-17T10:23:00.439Z,0.10
2022-12-17T10:25:45.443Z,0.10
2022-12-17T10:28:34.724Z,0.10
2022-12-17T10:31:20.485Z,0.20
2022-12-17T10:34:05.600Z,0.20
2022-12-17T10:36:50.681Z,0.10
2022-12-17T10:39:38.494Z,0.10
2022-12-17T10:42:37.606Z,0.30
2022-12-17T10:45:38.330Z,0.50
2022-12-17T10:48:23.812Z,0.60
2022-12-17T10:51:08.983Z,0.70
2022-12-17T10:53:53.965Z,0.70
2022-12-17T10:56:41.462Z,0.70
2022-12-17T10:59:31.221Z,0.60
2022-12-17T11:02:17.561Z,0.50
2022-12-17T11:05:10.252Z,0.40
2022-12-17T11:07:59.880Z,0.40
2022-12-17T11:10:47.657Z,0.50
2022-12-17T11:13:39.097Z,0.60
2022-12-17T11:16:28.438Z,0.50
2022-12-17T11:19:16.701Z,0.50
2022-12-17T11:22:06.173Z,0.50
2022-12-17T11:25:08.281Z,0.50
2022-12-17T11:27:56.377Z,0.60
2022-12-17T11:30:41.482Z,0.50
2022-12-17T11:33:37.112Z,0.40
2022-12-17T11:36:43.382Z,0.50
2022-12-17T11:39:34.662Z,0.40
2022-12-17T11:42:35.087Z,0.50
2022-12-17T11:45:20.442Z,0.50
2022-12-17T11:48:10.565Z,0.40
2022-12-17T11:51:08.067Z,0.50
2022-12-17T11:53:56.249Z,0.50
2022-12-17T11:56:44.556Z,0.50
2022-12-17T11:59:51.122Z,0.50
2022-12-17T12:02:59.354Z,0.50
2022-12-17T12:06:03.151Z,0.40
2022-12-17T12:08:49.861Z,0.50
2022-12-17T12:11:38.127Z,0.40
2022-12-17T12:14:35.273Z,0.40
2022-12-17T12:17:39.288Z,0.40
2022-12-17T12:20:27.638Z,0.40
2022-12-17T12:23:28.903Z,0.30
2022-12-17T12:26:43.414Z,0.30
2022-12-17T12:29:40.097Z,0.30
2022-12-17T12:32:31.518Z,0.30
2022-12-17T12:35:18.284Z,0.30
2022-12-17T12:38:03.890Z,0.30
2022-12-17T12:40:58.095Z,0.20
2022-12-17T12:43:47.769Z,0.30
2022-12-17T12:46:39.290Z,0.40
2022-12-17T12:49:35.160Z,0.40
2022-12-17T12:52:20.217Z,0.40
2022-12-17T12:55:05.138Z,0.40
2022-12-17T12:57:56.362Z,0.50
2022-12-17T13:00:41.313Z,0.40
2022-12-17T13:03:42.719Z,0.40
2022-12-17T13:06:09.672Z,0.40
2022-12-17T13:08:36.634Z,0.50
2022-12-17T13:11:10.406Z,0.40
2022-12-17T13:13:39.957Z,0.30
2022-12-17T13:16:25.188Z,0.20
2022-12-17T13:19:00.946Z,0.30
2022-12-17T13:21:27.622Z,0.40
2022-12-17T13:23:54.296Z,0.30
2022-12-17T13:26:23.391Z,0.30
2022-12-17T13:28:49.979Z,0.30
2022-12-17T13:31:19.780Z,0.40
2022-12-17T13:33:58.456Z,0.30
2022-12-17T13:36:32.310Z,0.20
2022-12-17T13:39:02.014Z,0.10
2022-12-17T13:41:30.388Z,0.10
2022-12-17T13:43:58.333Z,0.10
2022-12-17T13:46:25.138Z,0.10
2022-12-17T13:49:01.886Z,0.00
2022-12-17T13:51:30.668Z,-0.20
2022-12-17T13:53:58.477Z,-0.20
2022-12-17T13:56:26.707Z,-0.40
2022-12-17T13:58:54.723Z,-0.50
2022-12-17T14:01:21.508Z,-0.60
2022-12-17T14:04:07.146Z,-0.70
2022-12-17T14:06:36.250Z,-0.80
2022-12-17T14:09:03.746Z,-0.90
2022-12-17T14:11:49.179Z,-0.90
2022-12-17T14:14:30.933Z,-1.00
2022-12-17T14:16:57.651Z,-1.10
2022-12-17T14:19:24.638Z,-1.10
2022-12-17T14:21:51.715Z,-1.20
2022-12-17T14:24:20.554Z,-1.30
2022-12-17T14:26:50.680Z,-1.50
2022-12-17T14:29:24.097Z,-1.50
2022-12-17T14:31:58.539Z,-1.60
2022-12-17T14:34:25.290Z,-1.70
2022-12-17T14:36:58.758Z,-1.80
2022-12-17T14:39:25.295Z,-1.80
2022-12-17T14:42:10.653Z,-1.90
2022-12-17T14:44:39.987Z,-2.00
2022-12-17T14:47:09.195Z,-2.10
2022-12-17T14:49:37.480Z,-2.20
2022-12-17T14:52:13.159Z,-2.20
2022-12-17T14:54:44.664Z,-2.10
2022-12-17T14:57:19.642Z,-1.80
2022-12-17T14:59:46.342Z,-1.90
2022-12-17T15:02:16.145Z,-1.90
2022-12-17T15:04:42.885Z,-1.90
2022-12-17T15:07:17.889Z,-2.00
2022-12-17T15:09:44.921Z,-2.00
2022-12-17T15:12:11.442Z,-1.90
2022-12-17T15:14:37.979Z,-1.80
2022-12-17T15:17:05.865Z,-2.00
2022-12-17T15:19:32.511Z,-2.00
2022-12-17T15:21:59.254Z,-2.10
2022-12-17T15:24:25.808Z,-2.10
2022-12-17T15:26:52.729Z,-2.20
2022-12-17T15:29:19.359Z,-2.10
2022-12-17T15:31:46.141Z,-2.10
2022-12-17T15:34:13.861Z,-2.30
2022-12-17T15:36:40.507Z,-2.30
2022-12-17T15:39:07.126Z,-2.40
2022-12-17T15:44:53.219Z,-2.30
2022-12-17T15:47:19.756Z,-2.30
2022-12-17T15:49:46.303Z,-2.30
2022-12-17T15:52:15.046Z,-2.30
2022-12-17T15:54:42.286Z,-2.30
2022-12-17T15:57:10.880Z,-2.10
2022-12-17T15:59:40.771Z,-2.20
2022-12-17T16:02:09.110Z,-2.30
2022-12-17T16:04:37.544Z,-2.30
2022-12-17T16:07:04.586Z,-2.30
2022-12-17T16:09:31.192Z,-2.40
2022-12-17T16:11:57.881Z,-2.50
2022-12-17T16:14:24.555Z,-2.60
2022-12-17T16:16:51.148Z,-2.50
2022-12-17T16:19:17.720Z,-2.60
2022-12-17T16:21:46.882Z,-2.60
2022-12-17T16:24:13.832Z,-2.60
2022-12-17T16:26:40.384Z,-2.50
2022-12-17T16:29:06.975Z,-2.70
2022-12-17T16:31:33.760Z,-2.70
2022-12-17T16:34:00.473Z,-2.70
2022-12-17T16:36:27.078Z,-2.50
2022-12-17T16:38:54.104Z,-2.60
2022-12-17T16:41:21.214Z,-2.70
2022-12-17T16:43:47.921Z,-2.60
2022-12-17T16:46:28.328Z,-2.70
2022-12-17T16:48:55.953Z,-2.90
2022-12-17T16:51:28.393Z,-3.10
2022-12-17T16:53:55.677Z,-3.20
2022-12-17T16:56:23.640Z,-3.20
2022-12-17T16:58:50.871Z,-3.30
2022-12-17T17:01:21.129Z,-3.50
2022-12-17T17:03:48.216Z,-3.60
2022-12-17T17:06:15.317Z,-3.60
2022-12-17T17:08:42.071Z,-3.60
2022-12-17T17:11:09.627Z,-3.70
2022-12-17T17:13:36.789Z,-3.70
2022-12-17T17:16:03.781Z,-3.80
2022-12-17T17:18:30.320Z,-4.00
2022-12-17T17:21:12.386Z,-4.20
2022-12-17T17:23:39.042Z,-4.40
2022-12-17T17:26:06.041Z,-4.60
2022-12-17T17:28:32.549Z,-4.70
2022-12-17T17:30:59.820Z,-4.70
2022-12-17T17:33:33.640Z,-4.70
2022-12-17T17:36:06.999Z,-4.70
2022-12-17T17:38:34.997Z,-4.70
2022-12-17T17:41:02.230Z,-4.70
2022-12-17T17:43:28.857Z,-4.60
2022-12-17T17:45:55.631Z,-4.70
2022-12-17T17:48:22.148Z,-4.80
2022-12-17T17:51:02.495Z,-5.00
2022-12-17T17:53:29.054Z,-5.00
2022-12-17T17:56:01.398Z,-5.10
2022-12-17T17:58:27.988Z,-5.20
2022-12-17T18:00:54.518Z,-5.30
2022-12-17T18:03:21.119Z,-5.30
2022-12-17T18:05:47.676Z,-5.40
2022-12-17T18:08:14.258Z,-5.40
2022-12-17T18:10:40.843Z,-5.40
2022-12-17T18:13:27.179Z,-5.50
2022-12-17T18:15:59.427Z,-5.50
2022-12-17T18:18:25.935Z,-5.70
2022-12-17T18:21:02.061Z,-5.80
2022-12-17T18:23:28.582Z,-6.00
2022-12-17T18:25:55.113Z,-6.00
2022-12-17T18:28:21.626Z,-6.00
2022-12-17T18:30:48.142Z,-6.10
2022-12-17T18:33:14.677Z,-6.10
2022-12-17T18:35:41.166Z,-6.30
2022-12-17T18:38:07.689Z,-6.20
2022-12-17T18:40:35.291Z,-6.10
2022-12-17T18:43:20.725Z,-6.10
2022-12-17T18:45:47.249Z,-6.20
2022-12-17T18:48:13.990Z,-6.40
2022-12-17T18:50:40.535Z,-6.40
2022-12-17T18:53:07.069Z,-6.40
2022-12-17T18:55:33.735Z,-6.30
2022-12-17T18:58:01.584Z,-6.50
2022-12-17T19:00:28.125Z,-6.50
2022-12-17T19:02:54.797Z,-6.60
2022-12-17T19:05:21.386Z,-6.60
2022-12-17T19:07:47.941Z,-6.60
2022-12-17T19:10:14.462Z,-6.80
2022-12-17T19:12:41.034Z,-6.80
2022-12-17T19:15:07.925Z,-6.80
2022-12-17T19:17:34.584Z,-6.80
2022-12-17T19:20:01.122Z,-6.90
2022-12-17T19:22:27.636Z,-7.00
2022-12-17T19:24:54.212Z,-7.00
2022-12-17T19:27:20.736Z,-7.00
2022-12-17T19:29:49.591Z,-6.90
2022-12-17T19:32:16.559Z,-6.90
2022-12-17T19:34:43.078Z,-6.90
2022-12-17T19:37:09.651Z,-7.00
2022-12-17T19:39:36.168Z,-7.10
2022-12-17T19:42:02.696Z,-7.10
2022-12-17T19:44:29.763Z,-7.20
2022-12-17T19:46:58.183Z,-7.20
2022-12-17T19:49:24.694Z,-7.10
2022-12-17T19:51:51.312Z,-7.20
2022-12-17T19:54:18.036Z,-7.30
2022-12-17T19:56:44.827Z,-7.50
2022-12-17T19:59:11.951Z,-7.60
2022-12-17T20:01:45.436Z,-7.60
2022-12-17T20:04:13.200Z,-7.50
2022-12-17T20:06:39.753Z,-7.40
2022-12-17T20:09:06.951Z,-7.40
2022-12-17T20:11:34.216Z,-7.60
2022-12-17T20:16:58.640Z,-7.40
2022-12-17T20:19:26.593Z,-7.40
2022-12-17T20:21:53.644Z,-7.60
2022-12-17T20:24:20.216Z,-7.80
2022-12-17T20:26:51.061Z,-7.80
2022-12-17T20:29:18.332Z,-7.90
2022-12-17T20:31:49.555Z,-7.80
2022-12-17T20:34:17.286Z,-7.70
2022-12-17T20:36:44.137Z,-7.80
2022-12-17T20:39:11.647Z,-7.80
2022-12-17T20:41:40.046Z,-7.80
2022-12-17T20:44:08.486Z,-7.90
2022-12-17T20:46:36.861Z,-8.10
2022-12-17T20:49:04.400Z,-8.10
2022-12-17T20:51:31.140Z,-8.10
2022-12-17T20:53:58.775Z,-8.10
2022-12-17T20:56:27.249Z,-8.00
2022-12-17T20:58:54.688Z,-8.10
2022-12-17T21:01:22.657Z,-8.20
2022-12-17T21:03:50.729Z,-8.20
2022-12-17T21:06:19.165Z,-8.20
2022-12-17T21:08:50.186Z,-8.20
2022-12-17T21:11:18.606Z,-8.20
2022-12-17T21:13:45.198Z,-8.20
2022-12-17T21:16:13.222Z,-8.10
2022-12-17T21:18:40.726Z,-8.10
2022-12-17T21:21:09.140Z,-8.30
2022-12-17T21:23:36.762Z,-8.30
2022-12-17T21:26:08.688Z,-8.40
2022-12-17T21:28:38.378Z,-8.40
2022-12-17T21:31:05.683Z,-8.50
2022-12-17T21:33:32.359Z,-8.40
2022-12-17T21:36:07.685Z,-8.30
2022-12-17T21:38:35.310Z,-8.40
2022-12-17T21:41:06.016Z,-8.50
2022-12-17T21:43:32.726Z,-8.60
2022-12-17T21:45:59.409Z,-8.50
2022-12-17T21:48:27.040Z,-8.50
2022-12-17T21:50:53.791Z,-8.50
2022-12-17T21:53:20.884Z,-8.60
2022-12-17T21:55:47.829Z,-8.60
2022-12-17T21:58:15.513Z,-8.70
2022-12-17T22:00:42.592Z,-8.70
2022-12-17T22:03:09.246Z,-8.60
2022-12-17T22:05:37.059Z,-8.50
2022-12-17T22:08:04.388Z,-8.40
2022-12-17T22:10:41.144Z,-8.30
2022-12-17T22:13:35.400Z,-8.40
2022-12-17T22:16:05.075Z,-8.60
2022-12-17T22:18:31.805Z,-8.60
2022-12-17T22:20:59.337Z,-8.60
2022-12-17T22:23:26.383Z,-8.60
2022-12-17T22:25:53.347Z,-8.70
2022-12-17T22:28:19.974Z,-8.70
2022-12-17T22:31:05.345Z,-8.70
2022-12-17T22:33:40.355Z,-8.80
2022-12-17T22:38:41.678Z,-8.80
2022-12-17T22:42:13.901Z,-8.70
2022-12-17T22:44:34.190Z,-8.90
2022-12-17T22:45:09.054Z,-9.00
2022-12-17T22:47:36.659Z,-8.90
2022-12-17T22:50:03.506Z,-8.80
2022-12-17T22:52:30.877Z,-9.00
2022-12-17T22:54:58.002Z,-9.00
2022-12-17T22:57:35.710Z,-8.90
2022-12-17T23:03:06.951Z,-9.00
2022-12-17T23:05:34.944Z,-8.90
2022-12-17T23:08:01.747Z,-8.80
2022-12-17T23:10:28.860Z,-8.80
2022-12-17T23:12:55.751Z,-8.90
2022-12-17T23:15:24.061Z,-8.90
2022-12-17T23:17:51.723Z,-8.90
2022-12-17T23:20:18.434Z,-8.90
2022-12-17T23:22:45.032Z,-9.00
2022-12-17T23:25:11.874Z,-9.00
2022-12-17T23:27:39.475Z,-9.20
2022-12-17T23:30:06.791Z,-9.40
2022-12-17T23:32:33.561Z,-9.40
2022-12-17T23:35:00.232Z,-9.40
2022-12-17T23:37:26.899Z,-9.20
2022-12-17T23:39:53.448Z,-9.20
2022-12-17T23:42:20.131Z,-9.30
2022-12-17T23:44:46.654Z,-9.50
2022-12-17T23:47:13.159Z,-9.50
2022-12-17T23:49:39.674Z,-9.30
2022-12-17T23:52:06.216Z,-9.30
2022-12-17T23:54:36.042Z,-9.40
2022-12-17T23:57:02.567Z,-9.50
2022-12-17T23:59:29.113Z,-9.60
